sensor_id;sensor_type;location;lat;lon;timestamp;P1;durP1;ratioP1;P2;durP2;ratioP2
11052;SDS011;55230;42.602;23.470;2024-01-15T00:00:44;9.32;;;5.80;;
11052;SDS011;55230;42.602;23.470;2024-01-15T00:03:18;8.50;;;4.60;;
11052;SDS011;55230;42.602;23.470;2024-01-15T00:05:47;9.27;;;5.05;;
11052;SDS011;55230;42.602;23.470;2024-01-15T00:08:18;6.25;;;5.18;;
11052;SDS011;55230;42.602;23.470;2024-01-15T00:11:11;7.53;;;4.65;;
11052;SDS011;55230;42.602;23.470;2024-01-15T00:13:58;9.07;;;5.22;;
11052;SDS011;55230;42.602;23.470;2024-01-15T00:16:29;9.52;;;5.68;;
11052;SDS011;55230;42.602;23.470;2024-01-15T00:19:04;7.93;;;7.13;;
11052;SDS011;55230;42.602;23.470;2024-01-15T00:24:18;8.70;;;6.43;;
11052;SDS011;55230;42.602;23.470;2024-01-15T00:27:13;8.38;;;4.25;;
11052;SDS011;55230;42.602;23.470;2024-01-15T00:29:43;6.28;;;3.42;;
11052;SDS011;55230;42.602;23.470;2024-01-15T00:32:12;7.45;;;4.75;;
11052;SDS011;55230;42.602;23.470;2024-01-15T00:34:43;6.32;;;3.92;;
11052;SDS011;55230;42.602;23.470;2024-01-15T00:37:11;8.82;;;4.63;;
11052;SDS011;55230;42.602;23.470;2024-01-15T00:39:43;11.38;;;6.25;;
11052;SDS011;55230;42.602;23.470;2024-01-15T00:42:15;13.13;;;6.40;;
11052;SDS011;55230;42.602;23.470;2024-01-15T00:44:44;9.82;;;7.78;;
11052;SDS011;55230;42.602;23.470;2024-01-15T00:50:48;6.75;;;5.18;;
11052;SDS011;55230;42.602;23.470;2024-01-15T00:53:33;6.88;;;4.22;;
11052;SDS011;55230;42.602;23.470;2024-01-15T00:59:14;7.43;;;4.97;;
11052;SDS011;55230;42.602;23.470;2024-01-15T01:05:00;7.57;;;5.32;;
11052;SDS011;55230;42.602;23.470;2024-01-15T01:07:46;7.07;;;5.28;;
11052;SDS011;55230;42.602;23.470;2024-01-15T01:10:37;4.78;;;3.65;;
11052;SDS011;55230;42.602;23.470;2024-01-15T01:13:15;4.75;;;3.42;;
11052;SDS011;55230;42.602;23.470;2024-01-15T01:15:54;7.85;;;3.45;;
11052;SDS011;55230;42.602;23.470;2024-01-15T01:18:26;18.15;;;8.40;;
11052;SDS011;55230;42.602;23.470;2024-01-15T01:21:03;26.60;;;12.02;;
11052;SDS011;55230;42.602;23.470;2024-01-15T01:23:35;16.63;;;8.77;;
11052;SDS011;55230;42.602;23.470;2024-01-15T01:26:26;12.05;;;6.78;;
11052;SDS011;55230;42.602;23.470;2024-01-15T01:29:00;9.20;;;5.30;;
11052;SDS011;55230;42.602;23.470;2024-01-15T01:31:41;10.90;;;4.32;;
11052;SDS011;55230;42.602;23.470;2024-01-15T01:34:41;10.55;;;5.97;;
11052;SDS011;55230;42.602;23.470;2024-01-15T01:39:59;6.28;;;3.42;;
11052;SDS011;55230;42.602;23.470;2024-01-15T01:42:47;7.40;;;5.32;;
11052;SDS011;55230;42.602;23.470;2024-01-15T01:45:29;6.15;;;4.03;;
11052;SDS011;55230;42.602;23.470;2024-01-15T01:51:30;7.93;;;5.53;;
11052;SDS011;55230;42.602;23.470;2024-01-15T01:54:30;8.77;;;5.47;;
11052;SDS011;55230;42.602;23.470;2024-01-15T01:57:14;9.23;;;6.03;;
11052;SDS011;55230;42.602;23.470;2024-01-15T01:59:59;9.10;;;3.42;;
11052;SDS011;55230;42.602;23.470;2024-01-15T02:02:31;15.88;;;6.97;;
11052;SDS011;55230;42.602;23.470;2024-01-15T02:05:18;7.90;;;4.45;;
11052;SDS011;55230;42.602;23.470;2024-01-15T02:07:50;11.48;;;6.78;;
11052;SDS011;55230;42.602;23.470;2024-01-15T02:10:37;10.65;;;7.15;;
11052;SDS011;55230;42.602;23.470;2024-01-15T02:13:14;16.63;;;6.70;;
11052;SDS011;55230;42.602;23.470;2024-01-15T02:16:00;13.50;;;7.20;;
11052;SDS011;55230;42.602;23.470;2024-01-15T02:18:28;11.93;;;5.88;;
11052;SDS011;55230;42.602;23.470;2024-01-15T02:21:17;9.50;;;5.80;;
11052;SDS011;55230;42.602;23.470;2024-01-15T02:24:00;9.27;;;5.57;;
11052;SDS011;55230;42.602;23.470;2024-01-15T02:26:35;11.05;;;6.97;;
11052;SDS011;55230;42.602;23.470;2024-01-15T02:29:16;18.08;;;11.10;;
11052;SDS011;55230;42.602;23.470;2024-01-15T02:31:56;21.08;;;10.20;;
11052;SDS011;55230;42.602;23.470;2024-01-15T02:34:34;16.52;;;10.50;;
11052;SDS011;55230;42.602;23.470;2024-01-15T04:07:10;7.10;;;5.05;;
11052;SDS011;55230;42.602;23.470;2024-01-15T04:13:00;8.75;;;4.63;;
11052;SDS011;55230;42.602;23.470;2024-01-15T04:15:55;7.55;;;4.38;;
11052;SDS011;55230;42.602;23.470;2024-01-15T04:22:15;4.97;;;4.40;;
11052;SDS011;55230;42.602;23.470;2024-01-15T04:24:46;12.93;;;4.28;;
11052;SDS011;55230;42.602;23.470;2024-01-15T04:29:58;10.30;;;4.70;;
11052;SDS011;55230;42.602;23.470;2024-01-15T04:35:07;15.43;;;7.70;;
11052;SDS011;55230;42.602;23.470;2024-01-15T04:43:34;12.98;;;8.43;;
11052;SDS011;55230;42.602;23.470;2024-01-15T04:46:14;15.82;;;7.20;;
11052;SDS011;55230;42.602;23.470;2024-01-15T04:54:16;9.23;;;5.95;;
11052;SDS011;55230;42.602;23.470;2024-01-15T04:59:20;13.98;;;7.82;;
11052;SDS011;55230;42.602;23.470;2024-01-15T05:01:46;12.35;;;8.00;;
11052;SDS011;55230;42.602;23.470;2024-01-15T05:12:27;24.55;;;10.77;;
11052;SDS011;55230;42.602;23.470;2024-01-15T05:14:59;25.05;;;11.43;;
11052;SDS011;55230;42.602;23.470;2024-01-15T05:17:24;28.67;;;11.90;;
11052;SDS011;55230;42.602;23.470;2024-01-15T05:19:50;33.28;;;14.30;;
11052;SDS011;55230;42.602;23.470;2024-01-15T05:22:15;44.08;;;21.08;;
11052;SDS011;55230;42.602;23.470;2024-01-15T05:24:44;39.60;;;22.10;;
11052;SDS011;55230;42.602;23.470;2024-01-15T05:27:38;17.83;;;11.63;;
11052;SDS011;55230;42.602;23.470;2024-01-15T05:30:09;23.52;;;15.13;;
11052;SDS011;55230;42.602;23.470;2024-01-15T05:32:46;8.20;;;6.25;;
11052;SDS011;55230;42.602;23.470;2024-01-15T05:37:53;16.45;;;7.88;;
11052;SDS011;55230;42.602;23.470;2024-01-15T05:40:19;18.17;;;12.55;;
11052;SDS011;55230;42.602;23.470;2024-01-15T05:42:47;16.83;;;10.70;;
11052;SDS011;55230;42.602;23.470;2024-01-15T05:45:13;20.67;;;8.88;;
11052;SDS011;55230;42.602;23.470;2024-01-15T05:47:38;12.35;;;6.38;;
11052;SDS011;55230;42.602;23.470;2024-01-15T05:50:08;19.45;;;11.30;;
11052;SDS011;55230;42.602;23.470;2024-01-15T05:52:46;15.20;;;9.85;;
11052;SDS011;55230;42.602;23.470;2024-01-15T05:55:13;19.58;;;9.00;;
11052;SDS011;55230;42.602;23.470;2024-01-15T05:57:38;14.57;;;8.60;;
11052;SDS011;55230;42.602;23.470;2024-01-15T06:00:09;87.85;;;39.85;;
11052;SDS011;55230;42.602;23.470;2024-01-15T06:02:35;26.55;;;15.45;;
11052;SDS011;55230;42.602;23.470;2024-01-15T06:26:55;27.13;;;14.10;;
11052;SDS011;55230;42.602;23.470;2024-01-15T06:29:25;28.35;;;17.05;;
11052;SDS011;55230;42.602;23.470;2024-01-15T06:32:09;22.33;;;13.27;;
11052;SDS011;55230;42.602;23.470;2024-01-15T06:34:43;53.45;;;25.65;;
11052;SDS011;55230;42.602;23.470;2024-01-15T06:37:09;77.88;;;35.30;;
11052;SDS011;55230;42.602;23.470;2024-01-15T06:39:49;30.67;;;18.10;;
11052;SDS011;55230;42.602;23.470;2024-01-15T06:42:33;24.63;;;10.80;;
11052;SDS011;55230;42.602;23.470;2024-01-15T06:48:04;23.98;;;14.13;;
11052;SDS011;55230;42.602;23.470;2024-01-15T06:50:43;43.72;;;21.38;;
11052;SDS011;55230;42.602;23.470;2024-01-15T07:31:01;16.13;;;10.18;;
11052;SDS011;55230;42.602;23.470;2024-01-15T07:34:01;31.90;;;14.13;;
11052;SDS011;55230;42.602;23.470;2024-01-15T07:36:27;18.42;;;10.48;;
11052;SDS011;55230;42.602;23.470;2024-01-15T07:39:01;34.47;;;14.80;;
11052;SDS011;55230;42.602;23.470;2024-01-15T07:44:43;36.53;;;13.70;;
11052;SDS011;55230;42.602;23.470;2024-01-15T07:47:41;38.88;;;16.08;;
11052;SDS011;55230;42.602;23.470;2024-01-15T07:50:10;40.78;;;14.02;;
11052;SDS011;55230;42.602;23.470;2024-01-15T07:52:41;43.60;;;16.08;;
11052;SDS011;55230;42.602;23.470;2024-01-15T07:55:24;45.88;;;19.15;;
11052;SDS011;55230;42.602;23.470;2024-01-15T07:58:13;41.55;;;17.10;;
11052;SDS011;55230;42.602;23.470;2024-01-15T08:01:11;54.50;;;24.00;;
11052;SDS011;55230;42.602;23.470;2024-01-15T08:03:56;30.33;;;14.65;;
11052;SDS011;55230;42.602;23.470;2024-01-15T08:06:45;21.10;;;13.07;;
11052;SDS011;55230;42.602;23.470;2024-01-15T08:09:32;15.68;;;7.32;;
11052;SDS011;55230;42.602;23.470;2024-01-15T08:12:20;18.42;;;10.43;;
11052;SDS011;55230;42.602;23.470;2024-01-15T08:15:17;16.73;;;8.65;;
11052;SDS011;55230;42.602;23.470;2024-01-15T08:18:23;13.68;;;7.43;;
11052;SDS011;55230;42.602;23.470;2024-01-15T08:21:04;12.23;;;8.02;;
11052;SDS011;55230;42.602;23.470;2024-01-15T08:23:53;17.90;;;10.43;;
11052;SDS011;55230;42.602;23.470;2024-01-15T08:29:30;17.83;;;9.82;;
11052;SDS011;55230;42.602;23.470;2024-01-15T08:32:05;15.35;;;8.40;;
11052;SDS011;55230;42.602;23.470;2024-01-15T08:34:48;14.07;;;9.32;;
11052;SDS011;55230;42.602;23.470;2024-01-15T08:40:23;13.93;;;9.57;;
11052;SDS011;55230;42.602;23.470;2024-01-15T08:43:33;20.52;;;11.10;;
11052;SDS011;55230;42.602;23.470;2024-01-15T08:46:07;26.00;;;14.75;;
11052;SDS011;55230;42.602;23.470;2024-01-15T08:48:45;48.30;;;26.83;;
11052;SDS011;55230;42.602;23.470;2024-01-15T08:51:22;38.17;;;18.33;;
11052;SDS011;55230;42.602;23.470;2024-01-15T08:54:00;38.55;;;21.23;;
11052;SDS011;55230;42.602;23.470;2024-01-15T08:56:38;29.02;;;17.38;;
11052;SDS011;55230;42.602;23.470;2024-01-15T08:59:09;25.85;;;16.10;;
11052;SDS011;55230;42.602;23.470;2024-01-15T09:07:21;64.72;;;34.63;;
11052;SDS011;55230;42.602;23.470;2024-01-15T09:10:00;79.40;;;40.65;;
11052;SDS011;55230;42.602;23.470;2024-01-15T09:12:30;39.20;;;20.00;;
11052;SDS011;55230;42.602;23.470;2024-01-15T09:14:59;28.90;;;15.48;;
11052;SDS011;55230;42.602;23.470;2024-01-15T09:17:31;20.48;;;14.00;;
11052;SDS011;55230;42.602;23.470;2024-01-15T09:20:16;25.27;;;16.52;;
11052;SDS011;55230;42.602;23.470;2024-01-15T09:22:56;48.60;;;23.83;;
11052;SDS011;55230;42.602;23.470;2024-01-15T09:25:27;29.40;;;17.35;;
11052;SDS011;55230;42.602;23.470;2024-01-15T09:28:05;23.90;;;15.90;;
11052;SDS011;55230;42.602;23.470;2024-01-15T09:30:39;42.55;;;25.95;;
11052;SDS011;55230;42.602;23.470;2024-01-15T09:33:08;74.88;;;39.85;;
11052;SDS011;55230;42.602;23.470;2024-01-15T09:36:02;29.95;;;19.40;;
11052;SDS011;55230;42.602;23.470;2024-01-15T09:38:46;30.13;;;17.90;;
11052;SDS011;55230;42.602;23.470;2024-01-15T09:41:30;22.33;;;13.60;;
11052;SDS011;55230;42.602;23.470;2024-01-15T09:44:03;23.63;;;14.75;;
11052;SDS011;55230;42.602;23.470;2024-01-15T09:46:41;26.90;;;16.70;;
11052;SDS011;55230;42.602;23.470;2024-01-15T09:49:28;27.23;;;13.93;;
11052;SDS011;55230;42.602;23.470;2024-01-15T09:51:58;24.15;;;13.15;;
11052;SDS011;55230;42.602;23.470;2024-01-15T09:54:38;20.27;;;11.80;;
11052;SDS011;55230;42.602;23.470;2024-01-15T10:00:56;10.32;;;6.95;;
11052;SDS011;55230;42.602;23.470;2024-01-15T10:03:22;15.27;;;9.25;;
11052;SDS011;55230;42.602;23.470;2024-01-15T10:06:05;11.32;;;7.82;;
11052;SDS011;55230;42.602;23.470;2024-01-15T10:09:00;10.48;;;7.55;;
11052;SDS011;55230;42.602;23.470;2024-01-15T10:11:44;17.30;;;11.55;;
11052;SDS011;55230;42.602;23.470;2024-01-15T10:17:35;35.00;;;20.25;;
11052;SDS011;55230;42.602;23.470;2024-01-15T10:20:17;23.40;;;13.55;;
11052;SDS011;55230;42.602;23.470;2024-01-15T10:22:55;26.05;;;16.02;;
11052;SDS011;55230;42.602;23.470;2024-01-15T10:25:24;21.90;;;12.40;;
11052;SDS011;55230;42.602;23.470;2024-01-15T10:28:13;28.27;;;14.70;;
11052;SDS011;55230;42.602;23.470;2024-01-15T10:30:45;27.90;;;17.55;;
11052;SDS011;55230;42.602;23.470;2024-01-15T10:33:34;35.88;;;19.58;;
11052;SDS011;55230;42.602;23.470;2024-01-15T10:36:00;35.85;;;14.95;;
11052;SDS011;55230;42.602;23.470;2024-01-15T10:38:40;31.70;;;17.10;;
11052;SDS011;55230;42.602;23.470;2024-01-15T10:45:02;28.98;;;17.02;;
11052;SDS011;55230;42.602;23.470;2024-01-15T10:48:15;43.78;;;23.50;;
11052;SDS011;55230;42.602;23.470;2024-01-15T10:50:59;30.08;;;15.90;;
11052;SDS011;55230;42.602;23.470;2024-01-15T10:53:38;49.03;;;24.25;;
11052;SDS011;55230;42.602;23.470;2024-01-15T10:58:57;43.97;;;22.77;;
11052;SDS011;55230;42.602;23.470;2024-01-15T11:01:36;50.63;;;25.10;;
11052;SDS011;55230;42.602;23.470;2024-01-15T11:07:27;63.47;;;30.25;;
11052;SDS011;55230;42.602;23.470;2024-01-15T11:10:04;48.65;;;30.48;;
11052;SDS011;55230;42.602;23.470;2024-01-15T11:13:40;39.88;;;20.63;;
11052;SDS011;55230;42.602;23.470;2024-01-15T11:16:28;40.65;;;23.88;;
11052;SDS011;55230;42.602;23.470;2024-01-15T11:20:05;44.83;;;24.88;;
11052;SDS011;55230;42.602;23.470;2024-01-15T11:22:47;50.17;;;27.33;;
11052;SDS011;55230;42.602;23.470;2024-01-15T11:25:34;32.30;;;19.63;;
11052;SDS011;55230;42.602;23.470;2024-01-15T11:28:08;29.83;;;19.55;;
11052;SDS011;55230;42.602;23.470;2024-01-15T11:33:35;31.88;;;19.27;;
11052;SDS011;55230;42.602;23.470;2024-01-15T11:42:01;47.70;;;26.63;;
11052;SDS011;55230;42.602;23.470;2024-01-15T11:56:46;51.83;;;26.33;;
11052;SDS011;55230;42.602;23.470;2024-01-15T11:59:18;47.22;;;23.85;;
11052;SDS011;55230;42.602;23.470;2024-01-15T12:02:03;41.15;;;25.75;;
11052;SDS011;55230;42.602;23.470;2024-01-15T12:04:35;55.75;;;32.83;;
11052;SDS011;55230;42.602;23.470;2024-01-15T12:07:31;61.75;;;34.45;;
11052;SDS011;55230;42.602;23.470;2024-01-15T12:10:02;55.80;;;30.75;;
11052;SDS011;55230;42.602;23.470;2024-01-15T12:12:35;52.33;;;29.20;;
11052;SDS011;55230;42.602;23.470;2024-01-15T12:15:13;97.80;;;41.58;;
11052;SDS011;55230;42.602;23.470;2024-01-15T12:17:46;70.10;;;37.55;;
11052;SDS011;55230;42.602;23.470;2024-01-15T12:20:26;72.03;;;38.08;;
11052;SDS011;55230;42.602;23.470;2024-01-15T12:23:23;82.22;;;45.53;;
11052;SDS011;55230;42.602;23.470;2024-01-15T12:25:52;91.88;;;52.00;;
11052;SDS011;55230;42.602;23.470;2024-01-15T12:28:31;98.20;;;50.22;;
11052;SDS011;55230;42.602;23.470;2024-01-15T12:30:56;71.90;;;42.20;;
11052;SDS011;55230;42.602;23.470;2024-01-15T12:33:29;52.92;;;28.33;;
11052;SDS011;55230;42.602;23.470;2024-01-15T12:36:02;56.08;;;27.27;;
11052;SDS011;55230;42.602;23.470;2024-01-15T12:38:29;60.65;;;31.85;;
11052;SDS011;55230;42.602;23.470;2024-01-15T12:40:57;57.88;;;31.60;;
11052;SDS011;55230;42.602;23.470;2024-01-15T12:43:22;59.17;;;32.72;;
11052;SDS011;55230;42.602;23.470;2024-01-15T12:45:50;47.15;;;28.27;;
11052;SDS011;55230;42.602;23.470;2024-01-15T12:51:08;52.80;;;32.25;;
11052;SDS011;55230;42.602;23.470;2024-01-15T12:53:34;48.05;;;28.75;;
11052;SDS011;55230;42.602;23.470;2024-01-15T12:56:02;41.35;;;23.05;;
11052;SDS011;55230;42.602;23.470;2024-01-15T12:58:31;42.40;;;23.02;;
11052;SDS011;55230;42.602;23.470;2024-01-15T13:01:17;37.63;;;20.20;;
11052;SDS011;55230;42.602;23.470;2024-01-15T13:03:46;29.95;;;19.42;;
11052;SDS011;55230;42.602;23.470;2024-01-15T13:09:21;25.08;;;15.98;;
11052;SDS011;55230;42.602;23.470;2024-01-15T13:15:06;24.42;;;15.90;;
11052;SDS011;55230;42.602;23.470;2024-01-15T13:17:36;63.65;;;30.95;;
11052;SDS011;55230;42.602;23.470;2024-01-15T13:20:02;19.77;;;12.60;;
11052;SDS011;55230;42.602;23.470;2024-01-15T13:22:31;81.07;;;39.58;;
11052;SDS011;55230;42.602;23.470;2024-01-15T13:24:57;37.42;;;23.80;;
11052;SDS011;55230;42.602;23.470;2024-01-15T13:27:23;35.25;;;20.83;;
11052;SDS011;55230;42.602;23.470;2024-01-15T13:29:49;55.47;;;31.15;;
11052;SDS011;55230;42.602;23.470;2024-01-15T13:32:16;45.70;;;26.40;;
11052;SDS011;55230;42.602;23.470;2024-01-15T13:34:55;38.67;;;25.98;;
11052;SDS011;55230;42.602;23.470;2024-01-15T13:37:21;37.55;;;20.95;;
11052;SDS011;55230;42.602;23.470;2024-01-15T13:39:49;32.60;;;21.05;;
11052;SDS011;55230;42.602;23.470;2024-01-15T13:42:16;14.40;;;9.00;;
11052;SDS011;55230;42.602;23.470;2024-01-15T13:44:42;7.28;;;5.13;;
11052;SDS011;55230;42.602;23.470;2024-01-15T13:50:08;8.73;;;5.18;;
11052;SDS011;55230;42.602;23.470;2024-01-15T13:52:37;49.58;;;24.38;;
11052;SDS011;55230;42.602;23.470;2024-01-15T14:17:55;5.05;;;4.55;;
11052;SDS011;55230;42.602;23.470;2024-01-15T14:20:22;7.90;;;6.13;;
11052;SDS011;55230;42.602;23.470;2024-01-15T14:22:48;11.52;;;6.80;;
11052;SDS011;55230;42.602;23.470;2024-01-15T14:25:16;5.88;;;4.07;;
11052;SDS011;55230;42.602;23.470;2024-01-15T14:28:38;2.88;;;2.67;;
11052;SDS011;55230;42.602;23.470;2024-01-15T14:31:06;3.33;;;2.75;;
11052;SDS011;55230;42.602;23.470;2024-01-15T14:33:32;8.85;;;5.18;;
11052;SDS011;55230;42.602;23.470;2024-01-15T14:35:58;9.75;;;7.03;;
11052;SDS011;55230;42.602;23.470;2024-01-15T14:38:23;6.35;;;4.20;;
11052;SDS011;55230;42.602;23.470;2024-01-15T14:40:49;7.68;;;4.72;;
11052;SDS011;55230;42.602;23.470;2024-01-15T14:43:24;3.85;;;3.45;;
11052;SDS011;55230;42.602;23.470;2024-01-15T14:46:01;5.95;;;4.10;;
11052;SDS011;55230;42.602;23.470;2024-01-15T15:13:15;14.80;;;6.70;;
11052;SDS011;55230;42.602;23.470;2024-01-15T15:15:54;10.43;;;5.38;;
11052;SDS011;55230;42.602;23.470;2024-01-15T15:18:37;10.23;;;5.55;;
11052;SDS011;55230;42.602;23.470;2024-01-15T15:21:07;10.15;;;6.07;;
11052;SDS011;55230;42.602;23.470;2024-01-15T15:23:57;9.88;;;4.78;;
11052;SDS011;55230;42.602;23.470;2024-01-15T15:29:33;14.30;;;5.80;;
11052;SDS011;55230;42.602;23.470;2024-01-15T15:32:04;9.88;;;5.38;;
11052;SDS011;55230;42.602;23.470;2024-01-15T15:38:18;19.73;;;11.13;;
11052;SDS011;55230;42.602;23.470;2024-01-15T15:41:26;8.35;;;6.85;;
11052;SDS011;55230;42.602;23.470;2024-01-15T15:43:58;8.07;;;5.13;;
11052;SDS011;55230;42.602;23.470;2024-01-15T15:46:23;6.55;;;4.55;;
11052;SDS011;55230;42.602;23.470;2024-01-15T15:48:48;9.68;;;5.10;;
11052;SDS011;55230;42.602;23.470;2024-01-15T16:19:34;10.27;;;6.38;;
11052;SDS011;55230;42.602;23.470;2024-01-15T16:22:24;13.85;;;6.68;;
11052;SDS011;55230;42.602;23.470;2024-01-15T16:25:05;5.57;;;4.38;;
11052;SDS011;55230;42.602;23.470;2024-01-15T16:27:50;6.72;;;5.40;;
11052;SDS011;55230;42.602;23.470;2024-01-15T16:30:43;6.97;;;3.83;;
11052;SDS011;55230;42.602;23.470;2024-01-15T16:33:20;4.93;;;3.38;;
11052;SDS011;55230;42.602;23.470;2024-01-15T16:35:48;6.05;;;4.13;;
11052;SDS011;55230;42.602;23.470;2024-01-15T16:38:14;5.70;;;3.78;;
11052;SDS011;55230;42.602;23.470;2024-01-15T16:40:39;4.75;;;3.72;;
11052;SDS011;55230;42.602;23.470;2024-01-15T16:43:08;8.02;;;5.13;;
11052;SDS011;55230;42.602;23.470;2024-01-15T16:45:34;6.47;;;4.32;;
11052;SDS011;55230;42.602;23.470;2024-01-15T16:48:00;8.77;;;4.20;;
11052;SDS011;55230;42.602;23.470;2024-01-15T16:50:37;7.38;;;4.80;;
11052;SDS011;55230;42.602;23.470;2024-01-15T16:53:05;9.95;;;6.05;;
11052;SDS011;55230;42.602;23.470;2024-01-15T16:55:34;10.02;;;5.60;;
11052;SDS011;55230;42.602;23.470;2024-01-15T16:58:00;18.80;;;10.77;;
11052;SDS011;55230;42.602;23.470;2024-01-15T17:00:26;11.90;;;6.63;;
11052;SDS011;55230;42.602;23.470;2024-01-15T17:02:57;5.07;;;3.60;;
11052;SDS011;55230;42.602;23.470;2024-01-15T17:05:23;7.30;;;4.80;;
11052;SDS011;55230;42.602;23.470;2024-01-15T17:07:49;7.80;;;4.72;;
11052;SDS011;55230;42.602;23.470;2024-01-15T17:10:14;19.02;;;9.15;;
11052;SDS011;55230;42.602;23.470;2024-01-15T17:12:45;7.43;;;4.63;;
11052;SDS011;55230;42.602;23.470;2024-01-15T17:39:10;6.70;;;4.95;;
11052;SDS011;55230;42.602;23.470;2024-01-15T17:41:44;6.30;;;4.72;;
11052;SDS011;55230;42.602;23.470;2024-01-15T17:44:19;8.15;;;5.28;;
11052;SDS011;55230;42.602;23.470;2024-01-15T17:54:32;10.77;;;6.72;;
11052;SDS011;55230;42.602;23.470;2024-01-15T17:57:02;13.75;;;6.47;;
11052;SDS011;55230;42.602;23.470;2024-01-15T18:00:02;17.13;;;7.47;;
11052;SDS011;55230;42.602;23.470;2024-01-15T18:02:34;27.02;;;11.88;;
11052;SDS011;55230;42.602;23.470;2024-01-15T18:05:41;22.77;;;11.80;;
11052;SDS011;55230;42.602;23.470;2024-01-15T18:11:22;26.52;;;13.05;;
11052;SDS011;55230;42.602;23.470;2024-01-15T18:13:50;16.83;;;9.32;;
11052;SDS011;55230;42.602;23.470;2024-01-15T18:16:17;32.88;;;15.30;;
11052;SDS011;55230;42.602;23.470;2024-01-15T18:18:56;21.83;;;10.65;;
11052;SDS011;55230;42.602;23.470;2024-01-15T18:21:37;50.35;;;18.27;;
11052;SDS011;55230;42.602;23.470;2024-01-15T18:24:25;45.40;;;17.30;;
11052;SDS011;55230;42.602;23.470;2024-01-15T18:26:54;8.43;;;4.85;;
11052;SDS011;55230;42.602;23.470;2024-01-15T18:29:19;19.33;;;8.32;;
11052;SDS011;55230;42.602;23.470;2024-01-15T18:31:47;20.70;;;8.35;;
11052;SDS011;55230;42.602;23.470;2024-01-15T18:34:13;9.98;;;4.72;;
11052;SDS011;55230;42.602;23.470;2024-01-15T18:36:39;46.33;;;12.05;;
11052;SDS011;55230;42.602;23.470;2024-01-15T18:39:16;7.57;;;3.97;;
11052;SDS011;55230;42.602;23.470;2024-01-15T18:41:45;4.40;;;3.75;;
11052;SDS011;55230;42.602;23.470;2024-01-15T18:44:21;15.93;;;7.18;;
11052;SDS011;55230;42.602;23.470;2024-01-15T18:46:52;12.35;;;7.15;;
11052;SDS011;55230;42.602;23.470;2024-01-15T18:49:18;8.13;;;5.63;;
11052;SDS011;55230;42.602;23.470;2024-01-15T18:51:47;7.35;;;4.70;;
11052;SDS011;55230;42.602;23.470;2024-01-15T18:54:16;25.77;;;16.48;;
11052;SDS011;55230;42.602;23.470;2024-01-15T18:56:48;36.20;;;21.10;;
11052;SDS011;55230;42.602;23.470;2024-01-15T19:01:39;23.63;;;12.65;;
11052;SDS011;55230;42.602;23.470;2024-01-15T19:04:05;30.70;;;16.05;;
11052;SDS011;55230;42.602;23.470;2024-01-15T19:06:41;60.80;;;30.15;;
11052;SDS011;55230;42.602;23.470;2024-01-15T19:09:09;51.33;;;28.13;;
11052;SDS011;55230;42.602;23.470;2024-01-15T19:11:35;37.40;;;22.38;;
11052;SDS011;55230;42.602;23.470;2024-01-15T19:14:03;33.88;;;17.55;;
11052;SDS011;55230;42.602;23.470;2024-01-15T19:16:37;29.90;;;17.98;;
11052;SDS011;55230;42.602;23.470;2024-01-15T19:19:05;39.47;;;19.73;;
11052;SDS011;55230;42.602;23.470;2024-01-15T19:21:33;35.25;;;20.80;;
11052;SDS011;55230;42.602;23.470;2024-01-15T19:23:59;43.58;;;22.13;;
11052;SDS011;55230;42.602;23.470;2024-01-15T19:26:26;42.20;;;22.65;;
11052;SDS011;55230;42.602;23.470;2024-01-15T19:31:35;99.10;;;45.63;;
11052;SDS011;55230;42.602;23.470;2024-01-15T19:56:06;44.50;;;28.95;;
11052;SDS011;55230;42.602;23.470;2024-01-15T20:02:10;69.18;;;34.13;;
11052;SDS011;55230;42.602;23.470;2024-01-15T20:04:36;77.95;;;41.67;;
11052;SDS011;55230;42.602;23.470;2024-01-15T20:07:02;62.75;;;35.20;;
11052;SDS011;55230;42.602;23.470;2024-01-15T20:09:30;45.40;;;28.75;;
11052;SDS011;55230;42.602;23.470;2024-01-15T20:11:55;43.65;;;24.77;;
11052;SDS011;55230;42.602;23.470;2024-01-15T20:14:21;40.30;;;23.13;;
11052;SDS011;55230;42.602;23.470;2024-01-15T20:16:49;49.20;;;23.05;;
11052;SDS011;55230;42.602;23.470;2024-01-15T20:19:18;42.65;;;24.25;;
11052;SDS011;55230;42.602;23.470;2024-01-15T20:21:48;35.45;;;22.27;;
11052;SDS011;55230;42.602;23.470;2024-01-15T20:24:14;58.30;;;27.20;;
11052;SDS011;55230;42.602;23.470;2024-01-15T20:26:48;54.47;;;32.25;;
11052;SDS011;55230;42.602;23.470;2024-01-15T20:29:14;47.45;;;25.63;;
11052;SDS011;55230;42.602;23.470;2024-01-15T20:31:42;50.35;;;28.63;;
11052;SDS011;55230;42.602;23.470;2024-01-15T20:34:09;48.53;;;26.35;;
11052;SDS011;55230;42.602;23.470;2024-01-15T20:36:53;34.67;;;19.92;;
11052;SDS011;55230;42.602;23.470;2024-01-15T20:39:19;52.67;;;27.17;;
11052;SDS011;55230;42.602;23.470;2024-01-15T20:41:45;46.45;;;25.73;;
11052;SDS011;55230;42.602;23.470;2024-01-15T20:44:17;50.97;;;27.05;;
11052;SDS011;55230;42.602;23.470;2024-01-15T20:46:48;50.05;;;26.13;;
11052;SDS011;55230;42.602;23.470;2024-01-15T20:49:19;41.85;;;27.35;;
11052;SDS011;55230;42.602;23.470;2024-01-15T20:51:51;49.95;;;31.38;;
11052;SDS011;55230;42.602;23.470;2024-01-15T20:54:23;62.30;;;36.13;;
11052;SDS011;55230;42.602;23.470;2024-01-15T20:57:00;39.10;;;21.08;;
11052;SDS011;55230;42.602;23.470;2024-01-15T20:59:38;56.90;;;26.08;;
11052;SDS011;55230;42.602;23.470;2024-01-15T21:02:13;47.45;;;24.90;;
11052;SDS011;55230;42.602;23.470;2024-01-15T21:04:44;34.25;;;20.95;;
11052;SDS011;55230;42.602;23.470;2024-01-15T21:07:12;33.60;;;19.63;;
11052;SDS011;55230;42.602;23.470;2024-01-15T21:09:38;28.58;;;19.40;;
11052;SDS011;55230;42.602;23.470;2024-01-15T21:12:05;40.38;;;24.92;;
11052;SDS011;55230;42.602;23.470;2024-01-15T21:14:37;35.22;;;21.85;;
11052;SDS011;55230;42.602;23.470;2024-01-15T21:17:03;35.05;;;22.55;;
11052;SDS011;55230;42.602;23.470;2024-01-15T21:19:29;36.70;;;22.27;;
11052;SDS011;55230;42.602;23.470;2024-01-15T21:27:45;36.67;;;18.40;;
11052;SDS011;55230;42.602;23.470;2024-01-15T21:30:19;24.95;;;15.70;;
11052;SDS011;55230;42.602;23.470;2024-01-15T21:33:29;30.63;;;20.17;;
11052;SDS011;55230;42.602;23.470;2024-01-15T21:36:08;74.47;;;31.92;;
11052;SDS011;55230;42.602;23.470;2024-01-15T21:41:48;32.70;;;18.27;;
11052;SDS011;55230;42.602;23.470;2024-01-15T21:44:37;24.00;;;15.60;;
11052;SDS011;55230;42.602;23.470;2024-01-15T21:47:08;27.90;;;15.52;;
11052;SDS011;55230;42.602;23.470;2024-01-15T21:49:53;30.02;;;15.60;;
11052;SDS011;55230;42.602;23.470;2024-01-15T21:52:26;19.95;;;12.45;;
11052;SDS011;55230;42.602;23.470;2024-01-15T21:58:31;35.10;;;19.00;;
11052;SDS011;55230;42.602;23.470;2024-01-15T22:01:04;23.75;;;16.90;;
11052;SDS011;55230;42.602;23.470;2024-01-15T22:10:32;30.13;;;17.88;;
11052;SDS011;55230;42.602;23.470;2024-01-15T22:16:04;31.90;;;16.90;;
11052;SDS011;55230;42.602;23.470;2024-01-15T22:19:17;38.63;;;24.77;;
11052;SDS011;55230;42.602;23.470;2024-01-15T22:21:52;38.67;;;23.23;;
11052;SDS011;55230;42.602;23.470;2024-01-15T22:31:34;26.70;;;15.65;;
11052;SDS011;55230;42.602;23.470;2024-01-15T22:34:56;28.75;;;17.08;;